createdAt,value
2017-09-24T00:01:27.879Z,15.10
2017-09-24T00:03:55.420Z,15.73
2017-09-24T00:06:23.754Z,14.37
2017-09-24T00:08:51.295Z,15.03
2017-09-24T00:11:18.827Z,13.53
2017-09-24T00:13:46.386Z,14.30
2017-09-24T00:16:13.928Z,15.87
2017-09-24T00:18:42.256Z,13.37
2017-09-24T00:21:09.794Z,12.87
2017-09-24T00:23:37.364Z,15.50
2017-09-24T00:26:04.893Z,15.13
2017-09-24T00:28:33.220Z,16.80
2017-09-24T00:31:00.760Z,14.43
2017-09-24T00:33:28.315Z,16.07
2017-09-24T00:35:55.854Z,15.40
2017-09-24T00:38:23.424Z,15.03
2017-09-24T00:40:50.955Z,14.50
2017-09-24T00:43:19.296Z,14.63
2017-09-24T00:45:46.823Z,15.77
2017-09-24T00:48:14.388Z,16.00
2017-09-24T00:50:41.940Z,16.97
2017-09-24T00:53:09.959Z,18.10
2017-09-24T00:55:37.507Z,17.43
2017-09-24T00:58:05.068Z,17.40
2017-09-24T01:00:32.606Z,17.33
2017-09-24T01:03:00.169Z,16.97
2017-09-24T01:05:27.711Z,14.80
2017-09-24T01:07:55.277Z,17.57
2017-09-24T01:10:22.810Z,16.33
2017-09-24T01:12:51.155Z,17.10
2017-09-24T01:15:18.690Z,17.13
2017-09-24T01:17:46.231Z,16.77
2017-09-24T01:20:13.786Z,15.37
2017-09-24T01:22:41.315Z,17.27
2017-09-24T01:25:09.666Z,15.87
2017-09-24T01:27:37.212Z,17.97
2017-09-24T01:30:04.775Z,17.10
2017-09-24T01:32:32.310Z,16.63
2017-09-24T01:35:00.188Z,16.03
2017-09-24T01:37:27.719Z,16.40
2017-09-24T01:39:56.106Z,17.60
2017-09-24T01:42:23.639Z,19.10
2017-09-24T01:44:51.972Z,18.37
2017-09-24T01:47:19.540Z,20.77
2017-09-24T01:49:48.816Z,20.50
2017-09-24T01:52:16.379Z,19.57
2017-09-24T01:54:43.935Z,19.70
2017-09-24T01:57:11.479Z,18.90
2017-09-24T01:59:39.046Z,18.43
2017-09-24T02:02:06.578Z,17.93
2017-09-24T02:04:34.140Z,16.90
2017-09-24T02:07:02.450Z,17.70
2017-09-24T02:09:30.014Z,20.00
2017-09-24T02:11:57.555Z,19.87
2017-09-24T02:14:25.144Z,18.37
2017-09-24T02:16:52.683Z,19.47
2017-09-24T02:19:20.222Z,20.47
2017-09-24T02:21:48.546Z,19.33
2017-09-24T02:24:16.084Z,19.73
2017-09-24T02:26:43.647Z,19.33
2017-09-24T02:29:11.175Z,20.83
2017-09-24T02:31:39.518Z,18.80
2017-09-24T02:34:07.051Z,16.37
2017-09-24T02:36:34.612Z,19.20
2017-09-24T02:39:02.151Z,20.23
2017-09-24T02:41:29.724Z,18.37
2017-09-24T02:43:57.248Z,16.90
2017-09-24T02:46:25.569Z,17.67
2017-09-24T02:48:53.107Z,15.13
2017-09-24T02:51:20.671Z,17.27
2017-09-24T02:53:48.212Z,16.13
2017-09-24T02:56:16.550Z,15.57
2017-09-24T02:58:44.090Z,16.77
2017-09-24T03:01:11.656Z,15.47
2017-09-24T03:03:39.186Z,15.43
2017-09-24T03:06:06.747Z,16.53
2017-09-24T03:08:34.283Z,16.10
2017-09-24T03:11:02.610Z,15.47
2017-09-24T03:13:30.151Z,16.33
2017-09-24T03:15:57.696Z,15.93
2017-09-24T03:18:25.265Z,16.50
2017-09-24T03:20:52.815Z,14.80
2017-09-24T03:23:20.379Z,16.93
2017-09-24T03:31:50.398Z,16.33
2017-09-24T03:34:17.931Z,16.60
2017-09-24T03:36:45.499Z,16.63
2017-09-24T03:39:13.039Z,16.40
2017-09-24T03:41:40.607Z,15.83
2017-09-24T03:44:08.143Z,15.70
2017-09-24T03:46:35.679Z,16.80
2017-09-24T03:49:04.008Z,16.53
2017-09-24T03:51:31.539Z,13.80
2017-09-24T03:53:59.104Z,15.40
2017-09-24T03:56:26.643Z,15.60
2017-09-24T03:58:54.973Z,15.43
2017-09-24T04:01:22.498Z,17.10
2017-09-24T04:03:50.065Z,16.87
2017-09-24T04:06:17.604Z,19.63
2017-09-24T04:08:45.172Z,14.37
2017-09-24T04:11:12.715Z,16.43
2017-09-24T04:13:41.038Z,17.07
2017-09-24T04:16:09.587Z,17.70
2017-09-24T04:18:37.147Z,15.77
2017-09-24T04:21:04.686Z,16.37
2017-09-24T04:23:33.014Z,15.77
2017-09-24T04:26:00.554Z,15.17
2017-09-24T04:28:28.115Z,16.03
2017-09-24T04:30:55.656Z,16.13
2017-09-24T04:33:23.985Z,14.83
2017-09-24T04:35:51.530Z,16.07
2017-09-24T04:38:19.098Z,15.53
2017-09-24T04:40:46.634Z,15.93
2017-09-24T04:43:14.210Z,16.83
2017-09-24T04:45:41.748Z,14.67
2017-09-24T04:48:09.291Z,15.97
2017-09-24T04:50:37.618Z,16.20
2017-09-24T04:53:05.165Z,13.73
2017-09-24T04:55:32.724Z,17.47
2017-09-24T04:58:00.262Z,15.40
2017-09-24T05:00:27.823Z,17.37
2017-09-24T05:02:55.363Z,16.90
2017-09-24T05:05:23.686Z,18.10
2017-09-24T05:07:51.216Z,18.47
2017-09-24T05:10:18.778Z,15.03
2017-09-24T05:12:46.311Z,17.03
2017-09-24T05:15:14.632Z,15.40
2017-09-24T05:17:42.169Z,17.37
2017-09-24T05:20:09.740Z,17.87
2017-09-24T05:22:37.276Z,16.90
2017-09-24T05:25:05.610Z,15.50
2017-09-24T05:27:33.154Z,17.10
2017-09-24T05:30:00.714Z,15.93
2017-09-24T05:32:28.250Z,15.33
2017-09-24T05:34:55.807Z,14.10
2017-09-24T05:37:23.348Z,14.63
2017-09-24T05:39:51.682Z,15.90
2017-09-24T05:42:19.219Z,16.70
2017-09-24T05:44:46.791Z,16.90
2017-09-24T05:47:14.326Z,19.20
2017-09-24T05:49:41.858Z,19.40
2017-09-24T05:52:10.196Z,18.07
2017-09-24T05:54:37.735Z,18.00
2017-09-24T05:57:05.299Z,16.70
2017-09-24T05:59:32.842Z,16.80
2017-09-24T06:02:00.406Z,14.97
2017-09-24T06:04:27.948Z,15.57
2017-09-24T06:06:56.279Z,15.13
2017-09-24T06:09:23.817Z,14.20
2017-09-24T06:11:51.380Z,14.43
2017-09-24T06:14:18.919Z,15.80
2017-09-24T06:16:46.475Z,14.87
2017-09-24T06:19:14.012Z,15.87
2017-09-24T06:21:42.347Z,16.13
2017-09-24T06:24:09.879Z,14.80
2017-09-24T06:26:37.439Z,15.07
2017-09-24T06:29:04.976Z,16.13
2017-09-24T06:31:33.310Z,15.00
2017-09-24T06:34:00.843Z,15.63
2017-09-24T06:36:28.403Z,16.43
2017-09-24T06:38:55.945Z,14.77
2017-09-24T06:41:23.510Z,16.43
2017-09-24T06:43:51.044Z,16.53
2017-09-24T06:46:18.614Z,16.60
2017-09-24T06:48:46.920Z,16.17
2017-09-24T06:51:14.456Z,18.00
2017-09-24T06:53:42.782Z,18.40
2017-09-24T06:56:10.319Z,16.53
2017-09-24T06:58:37.880Z,14.50
2017-09-24T07:01:05.423Z,16.60
2017-09-24T07:03:32.987Z,18.33
2017-09-24T07:06:00.523Z,16.20
2017-09-24T07:08:28.851Z,16.93
2017-09-24T07:10:56.396Z,16.23
2017-09-24T07:13:23.955Z,17.40
2017-09-24T07:15:58.319Z,16.87
2017-09-24T07:18:25.883Z,16.90
2017-09-24T07:20:53.418Z,17.60
2017-09-24T07:23:20.966Z,19.00
2017-09-24T07:25:48.500Z,16.27
2017-09-24T07:28:16.069Z,16.03
2017-09-24T07:30:43.607Z,17.23
2017-09-24T07:33:11.934Z,17.50
2017-09-24T07:35:39.467Z,17.93
2017-09-24T07:38:07.022Z,16.50
2017-09-24T07:40:34.552Z,15.80
2017-09-24T07:43:02.897Z,18.17
2017-09-24T07:45:30.436Z,18.43
2017-09-24T07:47:57.994Z,19.60
2017-09-24T07:50:25.539Z,17.83
2017-09-24T07:52:53.109Z,18.20
2017-09-24T07:55:20.823Z,20.23
2017-09-24T07:57:48.372Z,18.87
2017-09-24T08:00:15.947Z,19.73
2017-09-24T08:02:43.493Z,18.67
2017-09-24T08:05:11.064Z,18.50
2017-09-24T08:07:38.603Z,19.97
2017-09-24T08:10:06.165Z,20.23
2017-09-24T08:12:33.706Z,19.83
2017-09-24T08:15:01.276Z,19.27
2017-09-24T08:17:28.813Z,18.87
2017-09-24T08:19:56.375Z,20.50
2017-09-24T08:22:23.916Z,18.80
2017-09-24T08:24:51.484Z,20.50
2017-09-24T08:27:19.026Z,19.70
2017-09-24T08:29:47.362Z,20.30
2017-09-24T08:32:14.914Z,19.80
2017-09-24T08:34:42.475Z,20.60
2017-09-24T08:37:10.015Z,21.37
2017-09-24T08:39:37.582Z,19.70
2017-09-24T08:42:05.118Z,21.70
2017-09-24T08:44:32.683Z,20.87
2017-09-24T08:47:00.218Z,22.93
2017-09-24T08:49:28.546Z,20.87
2017-09-24T08:51:56.083Z,20.67
2017-09-24T08:54:23.656Z,19.77
2017-09-24T08:56:51.199Z,20.97
2017-09-24T08:59:18.735Z,21.87
2017-09-24T09:01:47.067Z,21.50
2017-09-24T09:04:14.623Z,21.10
2017-09-24T09:06:42.183Z,21.80
2017-09-24T09:09:09.732Z,21.80
2017-09-24T09:11:37.323Z,21.03
2017-09-24T09:14:04.863Z,23.97
2017-09-24T09:16:32.423Z,22.10
2017-09-24T09:18:59.946Z,21.93
2017-09-24T09:21:39.156Z,19.63
2017-09-24T09:24:07.463Z,22.13
2017-09-24T09:26:35.015Z,21.97
2017-09-24T09:29:02.559Z,21.20
2017-09-24T09:31:30.891Z,22.33
2017-09-24T09:33:58.431Z,19.80
2017-09-24T09:36:25.995Z,20.30
2017-09-24T09:38:53.532Z,19.73
2017-09-24T09:41:21.088Z,20.43
2017-09-24T09:43:48.623Z,20.60
2017-09-24T09:46:27.976Z,19.60
2017-09-24T09:48:56.280Z,19.70
2017-09-24T09:51:23.838Z,18.87
2017-09-24T09:53:51.380Z,18.90
2017-09-24T09:56:18.946Z,18.37
2017-09-24T09:58:46.487Z,16.90
2017-09-24T10:01:14.792Z,16.27
2017-09-24T10:03:42.345Z,17.30
2017-09-24T10:06:09.887Z,15.67
2017-09-24T10:08:53.435Z,15.50
2017-09-24T10:11:20.971Z,15.83
2017-09-24T10:13:49.301Z,15.40
2017-09-24T10:16:16.831Z,14.53
2017-09-24T10:18:44.386Z,14.60
2017-09-24T10:21:11.923Z,14.63
2017-09-24T10:23:40.252Z,13.13
2017-09-24T10:26:07.790Z,13.80
2017-09-24T10:32:01.092Z,13.73
2017-09-24T10:34:28.651Z,12.83
2017-09-24T10:36:56.186Z,12.60
2017-09-24T10:39:23.743Z,12.97
2017-09-24T10:41:52.043Z,12.00
2017-09-24T10:44:19.608Z,12.50
2017-09-24T10:46:47.147Z,11.30
2017-09-24T10:49:15.205Z,12.30
2017-09-24T10:51:42.769Z,10.63
2017-09-24T10:54:11.087Z,9.43
2017-09-24T10:56:38.621Z,9.90
2017-09-24T10:59:06.186Z,10.40
2017-09-24T11:01:33.720Z,11.47
2017-09-24T11:04:02.047Z,10.93
2017-09-24T11:06:30.349Z,9.37
2017-09-24T11:08:57.907Z,20.20
2017-09-24T11:11:25.446Z,33.37
2017-09-24T11:13:53.011Z,10.00
2017-09-24T11:16:20.544Z,9.23
2017-09-24T11:18:48.128Z,8.90
2017-09-24T11:21:15.659Z,8.13
2017-09-24T11:23:43.228Z,8.00
2017-09-24T11:26:10.759Z,8.43
2017-09-24T11:28:39.061Z,9.10
2017-09-24T11:31:06.847Z,8.40
2017-09-24T11:33:34.385Z,8.53
2017-09-24T11:36:01.931Z,7.80
2017-09-24T11:38:29.459Z,7.10
2017-09-24T11:40:57.015Z,34.40
2017-09-24T11:43:24.548Z,39.60
2017-09-24T11:45:52.115Z,100.80
2017-09-24T11:48:19.638Z,7.73
2017-09-24T11:50:47.190Z,7.43
2017-09-24T11:53:14.714Z,8.30
2017-09-24T11:55:42.275Z,7.77
2017-09-24T11:58:09.799Z,7.50
2017-09-24T12:00:37.365Z,7.60
2017-09-24T12:03:04.901Z,7.93
2017-09-24T12:05:32.460Z,8.67
2017-09-24T12:07:59.996Z,7.57
2017-09-24T12:10:28.317Z,7.53
2017-09-24T12:12:55.846Z,8.13
2017-09-24T12:15:23.402Z,8.07
2017-09-24T12:17:50.931Z,6.53
2017-09-24T12:20:18.494Z,6.60
2017-09-24T12:22:46.799Z,7.30
2017-09-24T12:25:14.326Z,6.27
2017-09-24T12:27:41.879Z,6.90
2017-09-24T12:30:09.404Z,6.50
2017-09-24T12:32:36.956Z,7.00
2017-09-24T12:35:04.482Z,5.90
2017-09-24T12:37:32.802Z,6.27
2017-09-24T12:40:00.337Z,6.47
2017-09-24T12:42:27.892Z,6.07
2017-09-24T12:44:55.523Z,6.60
2017-09-24T12:47:24.420Z,5.80
2017-09-24T12:49:52.138Z,5.90
2017-09-24T12:52:19.847Z,6.40
2017-09-24T12:54:47.411Z,5.50
2017-09-24T12:57:15.825Z,5.57
2017-09-24T12:59:43.354Z,5.70
2017-09-24T13:02:11.683Z,6.03
2017-09-24T13:04:39.664Z,6.17
2017-09-24T13:07:08.018Z,5.83
2017-09-24T13:09:36.089Z,6.30
2017-09-24T13:12:04.484Z,5.30
2017-09-24T13:14:32.010Z,5.87
2017-09-24T13:16:59.569Z,5.97
2017-09-24T13:19:27.195Z,5.87
2017-09-24T13:21:54.763Z,5.73
2017-09-24T13:24:23.066Z,6.00
2017-09-24T13:26:50.595Z,6.00
2017-09-24T13:29:18.142Z,6.17
2017-09-24T13:31:45.670Z,6.50
2017-09-24T13:34:13.237Z,6.47
2017-09-24T13:36:40.887Z,7.33
2017-09-24T13:39:08.473Z,6.67
2017-09-24T13:41:36.008Z,6.70
2017-09-24T13:44:03.556Z,6.70
2017-09-24T13:46:31.099Z,6.37
2017-09-24T13:48:58.651Z,6.60
2017-09-24T13:51:26.947Z,6.50
2017-09-24T13:53:54.509Z,6.50
2017-09-24T13:56:22.040Z,5.03
2017-09-24T13:58:50.358Z,6.27
2017-09-24T14:01:17.887Z,6.20
2017-09-24T14:03:46.203Z,5.90
2017-09-24T14:06:13.734Z,6.97
2017-09-24T14:08:41.278Z,7.43
2017-09-24T14:11:09.576Z,7.23
2017-09-24T14:13:37.127Z,7.03
2017-09-24T14:16:04.670Z,6.50
2017-09-24T14:18:33.007Z,5.70
2017-09-24T14:21:00.537Z,6.30
2017-09-24T14:23:28.111Z,6.57
2017-09-24T14:25:55.641Z,5.20
2017-09-24T14:28:23.206Z,5.70
2017-09-24T14:30:50.755Z,6.17
2017-09-24T14:33:19.050Z,5.93
2017-09-24T14:35:46.602Z,6.40
2017-09-24T14:38:14.137Z,5.47
2017-09-24T14:40:42.462Z,5.57
2017-09-24T14:43:09.995Z,6.50
2017-09-24T14:45:37.547Z,6.17
2017-09-24T14:48:05.834Z,5.50
2017-09-24T14:50:33.392Z,6.17
2017-09-24T14:53:00.919Z,5.50
2017-09-24T14:55:28.464Z,5.50
2017-09-24T14:57:55.995Z,6.13
2017-09-24T15:00:23.557Z,5.23
2017-09-24T15:02:51.086Z,5.60
2017-09-24T15:05:19.399Z,5.60
2017-09-24T15:07:46.927Z,5.97
2017-09-24T15:10:15.247Z,6.00
2017-09-24T15:12:42.776Z,5.90
2017-09-24T15:15:10.327Z,6.20
2017-09-24T15:17:37.855Z,6.13
2017-09-24T15:20:05.428Z,6.23
2017-09-24T15:22:33.728Z,6.07
2017-09-24T15:25:01.259Z,6.80
2017-09-24T15:27:29.581Z,7.07
2017-09-24T15:29:57.117Z,6.33
2017-09-24T15:32:24.667Z,7.07
2017-09-24T15:34:52.964Z,7.40
2017-09-24T15:37:20.515Z,6.47
2017-09-24T15:39:48.047Z,7.63
2017-09-24T15:42:15.606Z,6.23
2017-09-24T15:44:43.910Z,6.23
2017-09-24T15:47:11.479Z,7.87
2017-09-24T15:49:39.006Z,7.20
2017-09-24T15:52:07.419Z,6.80
2017-09-24T15:54:34.951Z,7.63
2017-09-24T15:57:03.275Z,7.10
2017-09-24T15:59:30.796Z,7.70
2017-09-24T16:01:59.115Z,7.80
2017-09-24T16:04:26.652Z,7.60
2017-09-24T16:06:54.210Z,7.30
2017-09-24T16:09:21.738Z,8.40
2017-09-24T16:11:49.295Z,7.70
2017-09-24T16:14:16.828Z,9.00
2017-09-24T16:16:44.383Z,7.97
2017-09-24T16:19:11.915Z,9.17
2017-09-24T16:21:39.503Z,9.33
2017-09-24T16:24:07.043Z,7.57
2017-09-24T16:26:35.341Z,8.60
2017-09-24T16:29:02.896Z,9.33
2017-09-24T16:31:30.426Z,7.50
2017-09-24T16:33:58.007Z,10.60
2017-09-24T16:36:25.725Z,8.63
2017-09-24T16:38:54.061Z,8.50
2017-09-24T16:41:21.611Z,10.70
2017-09-24T16:43:49.180Z,8.20
2017-09-24T16:46:16.729Z,9.00
2017-09-24T16:48:44.308Z,10.47
2017-09-24T16:51:11.842Z,9.00
2017-09-24T16:53:39.391Z,9.40
2017-09-24T16:56:06.934Z,10.20
2017-09-24T16:58:34.494Z,8.17
2017-09-24T17:01:02.035Z,10.20
2017-09-24T17:03:30.367Z,10.00
2017-09-24T17:05:57.907Z,8.23
2017-09-24T17:08:25.483Z,10.07
2017-09-24T17:10:53.028Z,10.23
2017-09-24T17:13:20.582Z,8.77
2017-09-24T17:15:48.123Z,10.37
2017-09-24T17:18:16.444Z,10.00
2017-09-24T17:20:44.750Z,9.77
2017-09-24T17:23:12.316Z,11.67
2017-09-24T17:25:39.852Z,10.80
2017-09-24T17:28:07.439Z,8.87
2017-09-24T17:30:34.971Z,12.20
2017-09-24T17:33:03.268Z,9.80
2017-09-24T17:35:30.830Z,9.33
2017-09-24T17:37:58.375Z,12.10
2017-09-24T17:40:25.955Z,9.23
2017-09-24T17:42:53.495Z,8.70
2017-09-24T17:45:21.052Z,11.37
2017-09-24T17:47:48.592Z,9.47
2017-09-24T17:50:16.159Z,9.97
2017-09-24T17:52:43.723Z,10.30
2017-09-24T17:55:11.296Z,11.00
2017-09-24T17:57:38.868Z,12.20
2017-09-24T18:00:06.704Z,11.13
2017-09-24T18:02:34.239Z,9.33
2017-09-24T18:05:01.815Z,9.40
2017-09-24T18:07:29.356Z,11.43
2017-09-24T18:09:56.920Z,10.50
2017-09-24T18:12:24.461Z,12.60
2017-09-24T18:14:52.795Z,11.00
2017-09-24T18:17:20.349Z,10.73
2017-09-24T18:19:47.912Z,10.23
2017-09-24T18:22:15.456Z,12.07
2017-09-24T18:24:43.034Z,11.10
2017-09-24T18:27:10.578Z,13.23
2017-09-24T18:29:38.156Z,12.73
2017-09-24T18:32:05.705Z,10.87
2017-09-24T18:34:33.252Z,13.00
2017-09-24T18:37:00.818Z,12.40
2017-09-24T18:39:28.350Z,10.80
2017-09-24T18:41:55.918Z,14.43
2017-09-24T18:44:23.451Z,12.27
2017-09-24T18:46:52.608Z,14.73
2017-09-24T18:49:20.168Z,16.40
2017-09-24T18:51:47.764Z,14.60
2017-09-24T18:54:16.099Z,13.37
2017-09-24T18:56:43.680Z,15.20
2017-09-24T18:59:11.236Z,13.27
2017-09-24T19:01:38.826Z,14.90
2017-09-24T19:04:07.138Z,16.53
2017-09-24T19:06:34.718Z,15.53
2017-09-24T19:09:02.374Z,15.00
2017-09-24T19:11:29.938Z,15.60
2017-09-24T19:13:57.596Z,16.50
2017-09-24T19:16:25.716Z,16.30
2017-09-24T19:18:53.529Z,17.13
2017-09-24T19:21:21.367Z,15.53
2017-09-24T19:23:48.920Z,14.40
2017-09-24T19:26:17.255Z,17.53
2017-09-24T19:28:44.798Z,16.10
2017-09-24T19:31:12.371Z,17.13
2017-09-24T19:33:39.905Z,15.53
2017-09-24T19:36:07.455Z,15.87
2017-09-24T19:38:35.021Z,15.07
2017-09-24T19:41:02.571Z,16.83
2017-09-24T19:43:30.150Z,16.03
2017-09-24T19:45:57.695Z,16.57
2017-09-24T19:48:25.265Z,19.40
2017-09-24T19:50:52.807Z,16.90
2017-09-24T19:53:20.369Z,17.87
2017-09-24T19:55:47.906Z,16.53
2017-09-24T19:58:16.250Z,17.30
2017-09-24T20:00:43.787Z,16.47
2017-09-24T20:03:11.349Z,16.77
2017-09-24T20:05:38.891Z,17.23
2017-09-24T20:08:06.472Z,17.50
2017-09-24T20:10:34.012Z,16.33
2017-09-24T20:13:01.612Z,15.30
2017-09-24T20:15:29.152Z,18.40
2017-09-24T20:17:56.724Z,17.03
2017-09-24T20:20:24.266Z,16.77
2017-09-24T20:22:52.351Z,17.00
2017-09-24T20:25:20.655Z,17.70
2017-09-24T20:27:48.504Z,17.87
2017-09-24T20:30:16.060Z,17.50
2017-09-24T20:32:46.630Z,17.33
2017-09-24T20:35:14.939Z,18.00
2017-09-24T20:37:42.524Z,18.70
2017-09-24T20:40:10.073Z,17.83
2017-09-24T20:42:37.612Z,17.60
2017-09-24T20:45:05.175Z,18.43
2017-09-24T20:47:32.720Z,21.37
2017-09-24T20:50:01.048Z,19.27
2017-09-24T20:52:28.600Z,20.70
2017-09-24T20:54:56.162Z,20.97
2017-09-24T20:57:23.707Z,19.80
2017-09-24T20:59:51.276Z,19.30
2017-09-24T21:02:18.811Z,18.90
2017-09-24T21:04:46.381Z,19.90
2017-09-24T21:07:13.927Z,19.33
2017-09-24T21:09:41.491Z,18.37
2017-09-24T21:12:09.026Z,17.87
2017-09-24T21:14:37.348Z,16.53
2017-09-24T21:17:04.883Z,17.73
2017-09-24T21:19:32.444Z,20.47
2017-09-24T21:21:59.990Z,18.90
2017-09-24T21:24:27.564Z,20.30
2017-09-24T21:26:55.113Z,20.83
2017-09-24T21:29:22.688Z,21.63
2017-09-24T21:31:50.235Z,22.43
2017-09-24T21:34:17.794Z,22.90
2017-09-24T21:36:45.331Z,23.10
2017-09-24T21:39:13.638Z,22.77
2017-09-24T21:41:41.203Z,19.73
2017-09-24T21:44:08.739Z,22.50
2017-09-24T21:46:37.071Z,21.57
2017-09-24T21:49:04.609Z,22.70
2017-09-24T21:51:32.167Z,22.00
2017-09-24T21:53:59.695Z,19.90
2017-09-24T21:56:28.026Z,20.67
2017-09-24T21:58:55.570Z,20.77
2017-09-24T22:01:23.144Z,20.80
2017-09-24T22:03:50.675Z,21.00
2017-09-24T22:06:18.236Z,22.30
2017-09-24T22:08:45.768Z,20.60
2017-09-24T22:11:14.099Z,18.93
2017-09-24T22:13:41.636Z,19.33
2017-09-24T22:16:09.191Z,19.80
2017-09-24T22:18:36.733Z,21.73
2017-09-24T22:21:05.061Z,19.50
2017-09-24T22:23:32.603Z,18.83
2017-09-24T22:26:00.163Z,18.60
2017-09-24T22:28:27.694Z,19.40
2017-09-24T22:52:11.739Z,28.00
2017-09-24T22:54:39.280Z,27.17
2017-09-24T22:57:06.845Z,21.67
2017-09-24T22:59:34.378Z,22.30
2017-09-24T23:02:01.943Z,20.57
2017-09-24T23:04:29.487Z,20.77
2017-09-24T23:07:18.802Z,20.80
2017-09-24T23:09:46.343Z,20.20
2017-09-24T23:12:13.903Z,20.60
2017-09-24T23:14:41.438Z,18.10
2017-09-24T23:17:09.000Z,21.37
2017-09-24T23:19:36.545Z,22.93
2017-09-24T23:22:04.877Z,26.40
2017-09-24T23:24:32.419Z,22.67
2017-09-24T23:26:59.999Z,23.47
2017-09-24T23:29:27.547Z,23.30
2017-09-24T23:31:55.084Z,22.23
2017-09-24T23:34:22.647Z,21.90
2017-09-24T23:36:50.187Z,22.00
2017-09-24T23:39:17.761Z,22.37
2017-09-24T23:41:45.298Z,22.43
2017-09-24T23:44:13.659Z,25.83
2017-09-24T23:46:41.195Z,24.13
2017-09-24T23:49:08.764Z,24.43
2017-09-24T23:51:36.310Z,23.60
2017-09-24T23:54:24.663Z,25.00
2017-09-24T23:56:52.202Z,23.97
2017-09-24T23:59:19.763Z,24.23
